sensor_id;sensor_type;location;lat;lon;timestamp;pressure;altitude;pressure_sealevel;temperature
19282;BMP180;9774;52.034;5.342;2024-02-23T00:01:06;98457.00;;;10.90
19282;BMP180;9774;52.034;5.342;2024-02-23T00:03:34;98456.00;;;10.90
19282;BMP180;9774;52.034;5.342;2024-02-23T00:06:03;98463.00;;;11.00
19282;BMP180;9774;52.034;5.342;2024-02-23T00:08:31;98459.00;;;11.00
19282;BMP180;9774;52.034;5.342;2024-02-23T00:10:58;98463.00;;;11.00
19282;BMP180;9774;52.034;5.342;2024-02-23T00:13:25;98460.00;;;11.10
19282;BMP180;9774;52.034;5.342;2024-02-23T00:15:52;98463.00;;;11.10
19282;BMP180;9774;52.034;5.342;2024-02-23T00:18:19;98465.00;;;11.10
19282;BMP180;9774;52.034;5.342;2024-02-23T00:20:47;98463.00;;;11.10
19282;BMP180;9774;52.034;5.342;2024-02-23T00:23:14;98466.00;;;11.10
19282;BMP180;9774;52.034;5.342;2024-02-23T00:25:42;98474.00;;;11.20
19282;BMP180;9774;52.034;5.342;2024-02-23T00:28:10;98479.00;;;11.20
19282;BMP180;9774;52.034;5.342;2024-02-23T00:30:37;98486.00;;;11.20
19282;BMP180;9774;52.034;5.342;2024-02-23T00:33:05;98488.00;;;11.30
19282;BMP180;9774;52.034;5.342;2024-02-23T00:35:32;98494.00;;;11.30
19282;BMP180;9774;52.034;5.342;2024-02-23T00:37:59;98487.00;;;11.30
19282;BMP180;9774;52.034;5.342;2024-02-23T00:40:26;98504.00;;;11.40
19282;BMP180;9774;52.034;5.342;2024-02-23T00:42:55;98500.00;;;11.40
19282;BMP180;9774;52.034;5.342;2024-02-23T00:45:22;98494.00;;;11.40
19282;BMP180;9774;52.034;5.342;2024-02-23T00:47:49;98493.00;;;11.30
19282;BMP180;9774;52.034;5.342;2024-02-23T00:50:16;98513.00;;;11.30
19282;BMP180;9774;52.034;5.342;2024-02-23T00:52:43;98516.00;;;11.30
19282;BMP180;9774;52.034;5.342;2024-02-23T00:55:10;98530.00;;;11.30
19282;BMP180;9774;52.034;5.342;2024-02-23T00:57:38;98535.00;;;11.30
19282;BMP180;9774;52.034;5.342;2024-02-23T01:00:08;98536.00;;;11.30
19282;BMP180;9774;52.034;5.342;2024-02-23T01:02:37;98529.00;;;11.30
19282;BMP180;9774;52.034;5.342;2024-02-23T01:05:05;98540.00;;;11.30
19282;BMP180;9774;52.034;5.342;2024-02-23T01:07:35;98542.00;;;11.30
19282;BMP180;9774;52.034;5.342;2024-02-23T01:10:02;98529.00;;;11.40
19282;BMP180;9774;52.034;5.342;2024-02-23T01:12:29;98552.00;;;11.40
19282;BMP180;9774;52.034;5.342;2024-02-23T01:14:56;98541.00;;;11.40
19282;BMP180;9774;52.034;5.342;2024-02-23T01:17:25;98544.00;;;11.40
19282;BMP180;9774;52.034;5.342;2024-02-23T01:19:52;98534.00;;;11.50
19282;BMP180;9774;52.034;5.342;2024-02-23T01:22:19;98564.00;;;11.50
19282;BMP180;9774;52.034;5.342;2024-02-23T01:24:46;98565.00;;;11.50
19282;BMP180;9774;52.034;5.342;2024-02-23T01:27:13;98555.00;;;11.50
19282;BMP180;9774;52.034;5.342;2024-02-23T01:29:40;98570.00;;;11.50
19282;BMP180;9774;52.034;5.342;2024-02-23T01:32:07;98567.00;;;11.50
19282;BMP180;9774;52.034;5.342;2024-02-23T01:34:35;98572.00;;;11.50
19282;BMP180;9774;52.034;5.342;2024-02-23T01:37:03;98572.00;;;11.50
19282;BMP180;9774;52.034;5.342;2024-02-23T01:39:30;98582.00;;;11.50
19282;BMP180;9774;52.034;5.342;2024-02-23T01:41:57;98595.00;;;11.50
19282;BMP180;9774;52.034;5.342;2024-02-23T01:44:25;98602.00;;;11.50
19282;BMP180;9774;52.034;5.342;2024-02-23T01:46:52;98599.00;;;11.40
19282;BMP180;9774;52.034;5.342;2024-02-23T01:49:21;98590.00;;;11.40
19282;BMP180;9774;52.034;5.342;2024-02-23T01:51:50;98593.00;;;11.40
19282;BMP180;9774;52.034;5.342;2024-02-23T01:54:17;98596.00;;;11.40
19282;BMP180;9774;52.034;5.342;2024-02-23T01:56:44;98592.00;;;11.30
19282;BMP180;9774;52.034;5.342;2024-02-23T01:59:13;98600.00;;;11.30
19282;BMP180;9774;52.034;5.342;2024-02-23T02:01:43;98606.00;;;11.30
19282;BMP180;9774;52.034;5.342;2024-02-23T02:04:10;98612.00;;;11.30
19282;BMP180;9774;52.034;5.342;2024-02-23T02:06:38;98619.00;;;11.20
19282;BMP180;9774;52.034;5.342;2024-02-23T02:09:07;98616.00;;;11.10
19282;BMP180;9774;52.034;5.342;2024-02-23T02:11:34;98614.00;;;11.10
19282;BMP180;9774;52.034;5.342;2024-02-23T02:14:02;98608.00;;;11.10
19282;BMP180;9774;52.034;5.342;2024-02-23T02:16:29;98611.00;;;11.10
19282;BMP180;9774;52.034;5.342;2024-02-23T02:18:56;98612.00;;;11.00
19282;BMP180;9774;52.034;5.342;2024-02-23T02:21:23;98617.00;;;11.00
19282;BMP180;9774;52.034;5.342;2024-02-23T02:23:51;98618.00;;;11.00
19282;BMP180;9774;52.034;5.342;2024-02-23T02:26:19;98611.00;;;11.00
19282;BMP180;9774;52.034;5.342;2024-02-23T02:28:46;98609.00;;;11.00
19282;BMP180;9774;52.034;5.342;2024-02-23T02:31:14;98620.00;;;11.00
19282;BMP180;9774;52.034;5.342;2024-02-23T02:33:41;98608.00;;;11.00
19282;BMP180;9774;52.034;5.342;2024-02-23T02:36:08;98618.00;;;11.00
19282;BMP180;9774;52.034;5.342;2024-02-23T02:38:35;98621.00;;;11.00
19282;BMP180;9774;52.034;5.342;2024-02-23T02:41:03;98629.00;;;11.00
19282;BMP180;9774;52.034;5.342;2024-02-23T02:43:32;98630.00;;;11.00
19282;BMP180;9774;52.034;5.342;2024-02-23T02:45:59;98638.00;;;11.00
19282;BMP180;9774;52.034;5.342;2024-02-23T02:48:26;98630.00;;;11.00
19282;BMP180;9774;52.034;5.342;2024-02-23T02:50:53;98628.00;;;10.90
19282;BMP180;9774;52.034;5.342;2024-02-23T02:53:21;98629.00;;;11.00
19282;BMP180;9774;52.034;5.342;2024-02-23T02:55:48;98632.00;;;11.00
19282;BMP180;9774;52.034;5.342;2024-02-23T02:58:15;98641.00;;;10.90
19282;BMP180;9774;52.034;5.342;2024-02-23T03:00:44;98639.00;;;10.90
19282;BMP180;9774;52.034;5.342;2024-02-23T03:03:11;98637.00;;;10.90
19282;BMP180;9774;52.034;5.342;2024-02-23T03:05:38;98642.00;;;10.90
19282;BMP180;9774;52.034;5.342;2024-02-23T03:08:06;98647.00;;;10.90
19282;BMP180;9774;52.034;5.342;2024-02-23T03:10:33;98648.00;;;10.90
19282;BMP180;9774;52.034;5.342;2024-02-23T03:13:00;98646.00;;;10.80
19282;BMP180;9774;52.034;5.342;2024-02-23T03:15:28;98652.00;;;10.80
19282;BMP180;9774;52.034;5.342;2024-02-23T03:17:57;98654.00;;;10.80
19282;BMP180;9774;52.034;5.342;2024-02-23T03:20:26;98651.00;;;10.80
19282;BMP180;9774;52.034;5.342;2024-02-23T03:22:53;98651.00;;;10.80
19282;BMP180;9774;52.034;5.342;2024-02-23T03:25:21;98659.00;;;10.80
19282;BMP180;9774;52.034;5.342;2024-02-23T03:27:48;98665.00;;;10.80
19282;BMP180;9774;52.034;5.342;2024-02-23T03:30:15;98656.00;;;10.80
19282;BMP180;9774;52.034;5.342;2024-02-23T03:32:42;98663.00;;;10.70
19282;BMP180;9774;52.034;5.342;2024-02-23T03:35:10;98669.00;;;10.70
19282;BMP180;9774;52.034;5.342;2024-02-23T03:37:38;98666.00;;;10.70
19282;BMP180;9774;52.034;5.342;2024-02-23T03:40:07;98673.00;;;10.70
19282;BMP180;9774;52.034;5.342;2024-02-23T03:42:36;98668.00;;;10.70
19282;BMP180;9774;52.034;5.342;2024-02-23T03:45:04;98672.00;;;10.70
19282;BMP180;9774;52.034;5.342;2024-02-23T03:47:32;98672.00;;;10.70
19282;BMP180;9774;52.034;5.342;2024-02-23T03:49:59;98666.00;;;10.70
19282;BMP180;9774;52.034;5.342;2024-02-23T03:52:27;98674.00;;;10.70
19282;BMP180;9774;52.034;5.342;2024-02-23T03:54:54;98670.00;;;10.70
19282;BMP180;9774;52.034;5.342;2024-02-23T03:57:21;98674.00;;;10.70
19282;BMP180;9774;52.034;5.342;2024-02-23T03:59:55;98678.00;;;10.60
19282;BMP180;9774;52.034;5.342;2024-02-23T04:02:22;98686.00;;;10.70
19282;BMP180;9774;52.034;5.342;2024-02-23T04:04:49;98691.00;;;10.60
19282;BMP180;9774;52.034;5.342;2024-02-23T04:07:16;98683.00;;;10.60
19282;BMP180;9774;52.034;5.342;2024-02-23T04:09:45;98685.00;;;10.60
19282;BMP180;9774;52.034;5.342;2024-02-23T04:12:18;98679.00;;;10.60
19282;BMP180;9774;52.034;5.342;2024-02-23T04:14:45;98688.00;;;10.60
19282;BMP180;9774;52.034;5.342;2024-02-23T04:17:12;98680.00;;;10.60
19282;BMP180;9774;52.034;5.342;2024-02-23T04:19:41;98692.00;;;10.60
19282;BMP180;9774;52.034;5.342;2024-02-23T04:22:09;98689.00;;;10.60
19282;BMP180;9774;52.034;5.342;2024-02-23T04:24:38;98693.00;;;10.50
19282;BMP180;9774;52.034;5.342;2024-02-23T04:27:08;98703.00;;;10.50
19282;BMP180;9774;52.034;5.342;2024-02-23T04:29:35;98701.00;;;10.50
19282;BMP180;9774;52.034;5.342;2024-02-23T04:32:03;98698.00;;;10.50
19282;BMP180;9774;52.034;5.342;2024-02-23T04:34:31;98705.00;;;10.50
19282;BMP180;9774;52.034;5.342;2024-02-23T04:36:58;98707.00;;;10.40
19282;BMP180;9774;52.034;5.342;2024-02-23T04:39:25;98707.00;;;10.40
19282;BMP180;9774;52.034;5.342;2024-02-23T04:41:52;98706.00;;;10.40
19282;BMP180;9774;52.034;5.342;2024-02-23T04:44:22;98711.00;;;10.40
19282;BMP180;9774;52.034;5.342;2024-02-23T04:46:50;98705.00;;;10.40
19282;BMP180;9774;52.034;5.342;2024-02-23T04:49:17;98715.00;;;10.40
19282;BMP180;9774;52.034;5.342;2024-02-23T04:51:44;98717.00;;;10.40
19282;BMP180;9774;52.034;5.342;2024-02-23T04:54:11;98723.00;;;10.50
19282;BMP180;9774;52.034;5.342;2024-02-23T04:56:38;98721.00;;;10.50
19282;BMP180;9774;52.034;5.342;2024-02-23T04:59:05;98716.00;;;10.50
19282;BMP180;9774;52.034;5.342;2024-02-23T05:01:37;98725.00;;;10.50
19282;BMP180;9774;52.034;5.342;2024-02-23T05:04:04;98726.00;;;10.60
19282;BMP180;9774;52.034;5.342;2024-02-23T05:06:32;98724.00;;;10.60
19282;BMP180;9774;52.034;5.342;2024-02-23T05:08:59;98725.00;;;10.70
19282;BMP180;9774;52.034;5.342;2024-02-23T05:11:26;98725.00;;;10.70
19282;BMP180;9774;52.034;5.342;2024-02-23T05:13:53;98723.00;;;10.70
19282;BMP180;9774;52.034;5.342;2024-02-23T05:16:20;98726.00;;;10.80
19282;BMP180;9774;52.034;5.342;2024-02-23T05:18:48;98721.00;;;10.80
19282;BMP180;9774;52.034;5.342;2024-02-23T05:21:16;98717.00;;;10.80
19282;BMP180;9774;52.034;5.342;2024-02-23T05:23:43;98705.00;;;10.90
19282;BMP180;9774;52.034;5.342;2024-02-23T05:26:12;98711.00;;;10.90
19282;BMP180;9774;52.034;5.342;2024-02-23T05:28:39;98708.00;;;10.90
19282;BMP180;9774;52.034;5.342;2024-02-23T05:31:06;98718.00;;;10.90
19282;BMP180;9774;52.034;5.342;2024-02-23T05:33:33;98718.00;;;11.00
19282;BMP180;9774;52.034;5.342;2024-02-23T05:36:01;98715.00;;;11.00
19282;BMP180;9774;52.034;5.342;2024-02-23T05:38:30;98722.00;;;11.00
19282;BMP180;9774;52.034;5.342;2024-02-23T05:40:57;98716.00;;;11.00
19282;BMP180;9774;52.034;5.342;2024-02-23T05:43:24;98716.00;;;11.00
19282;BMP180;9774;52.034;5.342;2024-02-23T05:45:51;98713.00;;;11.10
19282;BMP180;9774;52.034;5.342;2024-02-23T05:48:20;98721.00;;;11.10
19282;BMP180;9774;52.034;5.342;2024-02-23T05:50:47;98712.00;;;11.10
19282;BMP180;9774;52.034;5.342;2024-02-23T05:53:15;98729.00;;;11.10
19282;BMP180;9774;52.034;5.342;2024-02-23T05:55:42;98707.00;;;11.10
19282;BMP180;9774;52.034;5.342;2024-02-23T05:58:09;98725.00;;;11.20
19282;BMP180;9774;52.034;5.342;2024-02-23T06:00:39;98714.00;;;11.20
19282;BMP180;9774;52.034;5.342;2024-02-23T06:03:06;98715.00;;;11.20
19282;BMP180;9774;52.034;5.342;2024-02-23T06:05:33;98710.00;;;11.20
19282;BMP180;9774;52.034;5.342;2024-02-23T06:08:00;98715.00;;;11.20
19282;BMP180;9774;52.034;5.342;2024-02-23T06:10:30;98726.00;;;11.20
19282;BMP180;9774;52.034;5.342;2024-02-23T06:12:57;98730.00;;;11.20
19282;BMP180;9774;52.034;5.342;2024-02-23T06:15:24;98735.00;;;11.20
19282;BMP180;9774;52.034;5.342;2024-02-23T06:17:51;98730.00;;;11.20
19282;BMP180;9774;52.034;5.342;2024-02-23T06:20:18;98725.00;;;11.30
19282;BMP180;9774;52.034;5.342;2024-02-23T06:22:45;98721.00;;;11.30
19282;BMP180;9774;52.034;5.342;2024-02-23T06:25:13;98739.00;;;11.30
19282;BMP180;9774;52.034;5.342;2024-02-23T06:27:41;98736.00;;;11.30
19282;BMP180;9774;52.034;5.342;2024-02-23T06:30:09;98734.00;;;11.30
19282;BMP180;9774;52.034;5.342;2024-02-23T06:32:37;98738.00;;;11.30
19282;BMP180;9774;52.034;5.342;2024-02-23T06:35:05;98736.00;;;11.30
19282;BMP180;9774;52.034;5.342;2024-02-23T06:37:33;98735.00;;;11.30
19282;BMP180;9774;52.034;5.342;2024-02-23T06:40:00;98743.00;;;11.30
19282;BMP180;9774;52.034;5.342;2024-02-23T06:42:27;98730.00;;;11.40
19282;BMP180;9774;52.034;5.342;2024-02-23T06:44:56;98729.00;;;11.40
19282;BMP180;9774;52.034;5.342;2024-02-23T06:47:23;98733.00;;;11.40
19282;BMP180;9774;52.034;5.342;2024-02-23T06:49:51;98737.00;;;11.40
19282;BMP180;9774;52.034;5.342;2024-02-23T06:52:18;98733.00;;;11.40
19282;BMP180;9774;52.034;5.342;2024-02-23T06:54:46;98726.00;;;11.40
19282;BMP180;9774;52.034;5.342;2024-02-23T06:57:13;98737.00;;;11.50
19282;BMP180;9774;52.034;5.342;2024-02-23T06:59:40;98724.00;;;11.50
19282;BMP180;9774;52.034;5.342;2024-02-23T07:02:08;98727.00;;;11.50
19282;BMP180;9774;52.034;5.342;2024-02-23T07:04:35;98726.00;;;11.50
19282;BMP180;9774;52.034;5.342;2024-02-23T07:07:03;98731.00;;;11.60
19282;BMP180;9774;52.034;5.342;2024-02-23T07:09:33;98731.00;;;11.60
19282;BMP180;9774;52.034;5.342;2024-02-23T07:12:00;98725.00;;;11.60
19282;BMP180;9774;52.034;5.342;2024-02-23T07:14:27;98728.00;;;11.60
19282;BMP180;9774;52.034;5.342;2024-02-23T07:16:54;98732.00;;;11.70
19282;BMP180;9774;52.034;5.342;2024-02-23T07:19:23;98739.00;;;11.70
19282;BMP180;9774;52.034;5.342;2024-02-23T07:21:50;98732.00;;;11.70
19282;BMP180;9774;52.034;5.342;2024-02-23T07:24:18;98737.00;;;11.70
19282;BMP180;9774;52.034;5.342;2024-02-23T07:26:45;98734.00;;;11.70
19282;BMP180;9774;52.034;5.342;2024-02-23T07:29:12;98730.00;;;11.80
19282;BMP180;9774;52.034;5.342;2024-02-23T07:31:39;98729.00;;;11.80
19282;BMP180;9774;52.034;5.342;2024-02-23T07:34:06;98734.00;;;11.80
19282;BMP180;9774;52.034;5.342;2024-02-23T07:36:35;98733.00;;;11.80
19282;BMP180;9774;52.034;5.342;2024-02-23T07:39:03;98727.00;;;11.90
19282;BMP180;9774;52.034;5.342;2024-02-23T07:41:30;98721.00;;;11.90
19282;BMP180;9774;52.034;5.342;2024-02-23T07:43:57;98725.00;;;11.90
19282;BMP180;9774;52.034;5.342;2024-02-23T07:46:24;98705.00;;;12.00
19282;BMP180;9774;52.034;5.342;2024-02-23T07:48:51;98716.00;;;12.00
19282;BMP180;9774;52.034;5.342;2024-02-23T07:51:18;98714.00;;;12.00
19282;BMP180;9774;52.034;5.342;2024-02-23T07:53:47;98720.00;;;12.00
19282;BMP180;9774;52.034;5.342;2024-02-23T07:56:14;98719.00;;;12.00
19282;BMP180;9774;52.034;5.342;2024-02-23T07:58:41;98716.00;;;12.10
19282;BMP180;9774;52.034;5.342;2024-02-23T08:01:08;98711.00;;;12.10
19282;BMP180;9774;52.034;5.342;2024-02-23T08:03:35;98710.00;;;12.10
19282;BMP180;9774;52.034;5.342;2024-02-23T08:06:03;98712.00;;;12.10
19282;BMP180;9774;52.034;5.342;2024-02-23T08:08:30;98702.00;;;12.10
19282;BMP180;9774;52.034;5.342;2024-02-23T08:11:02;98701.00;;;12.20
19282;BMP180;9774;52.034;5.342;2024-02-23T08:13:29;98698.00;;;12.20
19282;BMP180;9774;52.034;5.342;2024-02-23T08:15:57;98702.00;;;12.30
19282;BMP180;9774;52.034;5.342;2024-02-23T08:18:24;98703.00;;;12.30
19282;BMP180;9774;52.034;5.342;2024-02-23T08:20:52;98695.00;;;12.30
19282;BMP180;9774;52.034;5.342;2024-02-23T08:23:19;98695.00;;;12.30
19282;BMP180;9774;52.034;5.342;2024-02-23T08:25:48;98694.00;;;12.30
19282;BMP180;9774;52.034;5.342;2024-02-23T08:28:17;98695.00;;;12.30
19282;BMP180;9774;52.034;5.342;2024-02-23T08:30:44;98692.00;;;12.30
19282;BMP180;9774;52.034;5.342;2024-02-23T08:33:11;98687.00;;;12.30
19282;BMP180;9774;52.034;5.342;2024-02-23T08:35:38;98685.00;;;12.40
19282;BMP180;9774;52.034;5.342;2024-02-23T08:38:05;98680.00;;;12.40
19282;BMP180;9774;52.034;5.342;2024-02-23T08:40:34;98687.00;;;12.40
19282;BMP180;9774;52.034;5.342;2024-02-23T08:43:01;98679.00;;;12.40
19282;BMP180;9774;52.034;5.342;2024-02-23T08:45:30;98686.00;;;12.40
19282;BMP180;9774;52.034;5.342;2024-02-23T08:47:57;98683.00;;;12.40
19282;BMP180;9774;52.034;5.342;2024-02-23T08:50:24;98685.00;;;12.40
19282;BMP180;9774;52.034;5.342;2024-02-23T08:52:52;98694.00;;;12.40
19282;BMP180;9774;52.034;5.342;2024-02-23T08:55:19;98681.00;;;12.40
19282;BMP180;9774;52.034;5.342;2024-02-23T08:57:47;98685.00;;;12.40
19282;BMP180;9774;52.034;5.342;2024-02-23T09:00:15;98690.00;;;12.40
19282;BMP180;9774;52.034;5.342;2024-02-23T09:02:43;98683.00;;;12.40
19282;BMP180;9774;52.034;5.342;2024-02-23T09:05:10;98691.00;;;12.40
19282;BMP180;9774;52.034;5.342;2024-02-23T09:07:37;98691.00;;;12.40
19282;BMP180;9774;52.034;5.342;2024-02-23T09:10:05;98690.00;;;12.50
19282;BMP180;9774;52.034;5.342;2024-02-23T09:12:32;98695.00;;;12.50
19282;BMP180;9774;52.034;5.342;2024-02-23T09:14:59;98708.00;;;12.50
19282;BMP180;9774;52.034;5.342;2024-02-23T09:17:26;98696.00;;;12.50
19282;BMP180;9774;52.034;5.342;2024-02-23T09:19:55;98700.00;;;12.60
19282;BMP180;9774;52.034;5.342;2024-02-23T09:22:22;98700.00;;;12.60
19282;BMP180;9774;52.034;5.342;2024-02-23T09:24:49;98702.00;;;12.60
19282;BMP180;9774;52.034;5.342;2024-02-23T09:27:20;98700.00;;;12.60
19282;BMP180;9774;52.034;5.342;2024-02-23T09:29:47;98692.00;;;12.60
19282;BMP180;9774;52.034;5.342;2024-02-23T09:32:14;98709.00;;;12.70
19282;BMP180;9774;52.034;5.342;2024-02-23T09:34:41;98702.00;;;12.70
19282;BMP180;9774;52.034;5.342;2024-02-23T09:37:10;98700.00;;;12.70
19282;BMP180;9774;52.034;5.342;2024-02-23T09:39:37;98712.00;;;12.70
19282;BMP180;9774;52.034;5.342;2024-02-23T09:42:09;98712.00;;;12.70
19282;BMP180;9774;52.034;5.342;2024-02-23T09:44:37;98720.00;;;12.70
19282;BMP180;9774;52.034;5.342;2024-02-23T09:47:06;98725.00;;;12.70
19282;BMP180;9774;52.034;5.342;2024-02-23T09:49:39;98718.00;;;12.60
19282;BMP180;9774;52.034;5.342;2024-02-23T09:52:09;98736.00;;;12.60
19282;BMP180;9774;52.034;5.342;2024-02-23T09:54:37;98743.00;;;12.60
19282;BMP180;9774;52.034;5.342;2024-02-23T09:57:08;98726.00;;;12.50
19282;BMP180;9774;52.034;5.342;2024-02-23T09:59:36;98739.00;;;12.60
19282;BMP180;9774;52.034;5.342;2024-02-23T10:02:08;98746.00;;;12.50
19282;BMP180;9774;52.034;5.342;2024-02-23T10:04:36;98735.00;;;12.60
19282;BMP180;9774;52.034;5.342;2024-02-23T10:07:05;98741.00;;;12.60
19282;BMP180;9774;52.034;5.342;2024-02-23T10:09:34;98723.00;;;12.60
19282;BMP180;9774;52.034;5.342;2024-02-23T10:12:01;98732.00;;;12.60
19282;BMP180;9774;52.034;5.342;2024-02-23T10:14:28;98747.00;;;12.70
19282;BMP180;9774;52.034;5.342;2024-02-23T10:16:56;98737.00;;;12.70
19282;BMP180;9774;52.034;5.342;2024-02-23T10:19:23;98746.00;;;12.80
19282;BMP180;9774;52.034;5.342;2024-02-23T10:21:54;98745.00;;;12.80
19282;BMP180;9774;52.034;5.342;2024-02-23T10:24:23;98747.00;;;12.90
19282;BMP180;9774;52.034;5.342;2024-02-23T10:26:52;98743.00;;;12.90
19282;BMP180;9774;52.034;5.342;2024-02-23T10:29:19;98748.00;;;12.90
19282;BMP180;9774;52.034;5.342;2024-02-23T10:31:47;98744.00;;;13.00
19282;BMP180;9774;52.034;5.342;2024-02-23T10:34:19;98748.00;;;12.90
19282;BMP180;9774;52.034;5.342;2024-02-23T10:36:47;98747.00;;;12.90
19282;BMP180;9774;52.034;5.342;2024-02-23T10:39:18;98755.00;;;12.90
19282;BMP180;9774;52.034;5.342;2024-02-23T10:41:54;98766.00;;;12.90
19282;BMP180;9774;52.034;5.342;2024-02-23T10:44:23;98776.00;;;12.90
19282;BMP180;9774;52.034;5.342;2024-02-23T10:46:52;98780.00;;;12.90
19282;BMP180;9774;52.034;5.342;2024-02-23T10:49:23;98780.00;;;12.90
19282;BMP180;9774;52.034;5.342;2024-02-23T10:51:53;98783.00;;;13.00
19282;BMP180;9774;52.034;5.342;2024-02-23T10:54:20;98783.00;;;13.00
19282;BMP180;9774;52.034;5.342;2024-02-23T10:56:50;98781.00;;;13.00
19282;BMP180;9774;52.034;5.342;2024-02-23T10:59:20;98783.00;;;13.10
19282;BMP180;9774;52.034;5.342;2024-02-23T11:01:50;98791.00;;;13.10
19282;BMP180;9774;52.034;5.342;2024-02-23T11:04:19;98801.00;;;13.10
19282;BMP180;9774;52.034;5.342;2024-02-23T11:06:50;98800.00;;;13.10
19282;BMP180;9774;52.034;5.342;2024-02-23T11:09:21;98803.00;;;13.20
19282;BMP180;9774;52.034;5.342;2024-02-23T11:11:56;98804.00;;;13.20
19282;BMP180;9774;52.034;5.342;2024-02-23T11:14:32;98792.00;;;13.20
19282;BMP180;9774;52.034;5.342;2024-02-23T11:16:59;98794.00;;;13.40
19282;BMP180;9774;52.034;5.342;2024-02-23T11:19:33;98794.00;;;13.40
19282;BMP180;9774;52.034;5.342;2024-02-23T11:22:02;98798.00;;;13.60
19282;BMP180;9774;52.034;5.342;2024-02-23T11:24:30;98798.00;;;13.70
19282;BMP180;9774;52.034;5.342;2024-02-23T11:26:58;98805.00;;;13.80
19282;BMP180;9774;52.034;5.342;2024-02-23T11:29:27;98816.00;;;13.90
19282;BMP180;9774;52.034;5.342;2024-02-23T11:31:57;98805.00;;;14.00
19282;BMP180;9774;52.034;5.342;2024-02-23T11:34:28;98799.00;;;14.10
19282;BMP180;9774;52.034;5.342;2024-02-23T11:36:55;98806.00;;;14.20
19282;BMP180;9774;52.034;5.342;2024-02-23T11:39:26;98803.00;;;14.20
19282;BMP180;9774;52.034;5.342;2024-02-23T11:41:53;98798.00;;;14.30
19282;BMP180;9774;52.034;5.342;2024-02-23T11:44:20;98814.00;;;14.30
19282;BMP180;9774;52.034;5.342;2024-02-23T11:46:47;98814.00;;;14.40
19282;BMP180;9774;52.034;5.342;2024-02-23T11:49:16;98812.00;;;14.40
19282;BMP180;9774;52.034;5.342;2024-02-23T11:51:43;98815.00;;;14.40
19282;BMP180;9774;52.034;5.342;2024-02-23T11:54:10;98807.00;;;14.50
19282;BMP180;9774;52.034;5.342;2024-02-23T11:56:37;98823.00;;;14.50
19282;BMP180;9774;52.034;5.342;2024-02-23T11:59:05;98821.00;;;14.50
19282;BMP180;9774;52.034;5.342;2024-02-23T12:01:32;98814.00;;;14.50
19282;BMP180;9774;52.034;5.342;2024-02-23T12:03:59;98816.00;;;14.50
19282;BMP180;9774;52.034;5.342;2024-02-23T12:06:30;98832.00;;;14.40
19282;BMP180;9774;52.034;5.342;2024-02-23T12:08:58;98820.00;;;14.40
19282;BMP180;9774;52.034;5.342;2024-02-23T12:11:26;98822.00;;;14.50
19282;BMP180;9774;52.034;5.342;2024-02-23T12:13:53;98822.00;;;14.50
19282;BMP180;9774;52.034;5.342;2024-02-23T12:16:21;98835.00;;;14.50
19282;BMP180;9774;52.034;5.342;2024-02-23T12:18:53;98817.00;;;14.50
19282;BMP180;9774;52.034;5.342;2024-02-23T12:21:23;98824.00;;;14.50
19282;BMP180;9774;52.034;5.342;2024-02-23T12:23:55;98826.00;;;14.50
19282;BMP180;9774;52.034;5.342;2024-02-23T12:26:22;98832.00;;;14.50
19282;BMP180;9774;52.034;5.342;2024-02-23T12:28:49;98832.00;;;14.50
19282;BMP180;9774;52.034;5.342;2024-02-23T12:31:23;98828.00;;;14.50
19282;BMP180;9774;52.034;5.342;2024-02-23T12:33:51;98834.00;;;14.60
19282;BMP180;9774;52.034;5.342;2024-02-23T12:36:18;98836.00;;;14.70
19282;BMP180;9774;52.034;5.342;2024-02-23T12:38:46;98841.00;;;14.70
19282;BMP180;9774;52.034;5.342;2024-02-23T12:41:14;98843.00;;;14.80
19282;BMP180;9774;52.034;5.342;2024-02-23T12:43:41;98835.00;;;14.80
19282;BMP180;9774;52.034;5.342;2024-02-23T12:46:09;98842.00;;;14.80
19282;BMP180;9774;52.034;5.342;2024-02-23T12:48:38;98851.00;;;14.90
19282;BMP180;9774;52.034;5.342;2024-02-23T12:51:05;98850.00;;;14.90
19282;BMP180;9774;52.034;5.342;2024-02-23T12:53:35;98845.00;;;14.90
19282;BMP180;9774;52.034;5.342;2024-02-23T12:56:04;98850.00;;;15.00
19282;BMP180;9774;52.034;5.342;2024-02-23T12:58:35;98849.00;;;15.00
19282;BMP180;9774;52.034;5.342;2024-02-23T13:01:03;98846.00;;;15.00
19282;BMP180;9774;52.034;5.342;2024-02-23T13:03:32;98853.00;;;15.00
19282;BMP180;9774;52.034;5.342;2024-02-23T13:05:59;98852.00;;;15.00
19282;BMP180;9774;52.034;5.342;2024-02-23T13:08:27;98862.00;;;15.00
19282;BMP180;9774;52.034;5.342;2024-02-23T13:10:56;98867.00;;;15.00
19282;BMP180;9774;52.034;5.342;2024-02-23T13:13:24;98869.00;;;15.00
19282;BMP180;9774;52.034;5.342;2024-02-23T13:15:54;98868.00;;;15.00
19282;BMP180;9774;52.034;5.342;2024-02-23T13:18:21;98868.00;;;15.00
19282;BMP180;9774;52.034;5.342;2024-02-23T13:20:50;98872.00;;;15.00
19282;BMP180;9774;52.034;5.342;2024-02-23T13:23:18;98871.00;;;15.00
19282;BMP180;9774;52.034;5.342;2024-02-23T13:25:48;98866.00;;;15.00
19282;BMP180;9774;52.034;5.342;2024-02-23T13:28:15;98878.00;;;14.90
19282;BMP180;9774;52.034;5.342;2024-02-23T13:30:42;98876.00;;;14.90
19282;BMP180;9774;52.034;5.342;2024-02-23T13:33:11;98881.00;;;14.90
19282;BMP180;9774;52.034;5.342;2024-02-23T13:35:38;98867.00;;;14.90
19282;BMP180;9774;52.034;5.342;2024-02-23T13:38:06;98869.00;;;14.90
19282;BMP180;9774;52.034;5.342;2024-02-23T13:40:33;98867.00;;;14.90
19282;BMP180;9774;52.034;5.342;2024-02-23T13:43:00;98865.00;;;14.80
19282;BMP180;9774;52.034;5.342;2024-02-23T13:45:27;98861.00;;;14.80
19282;BMP180;9774;52.034;5.342;2024-02-23T13:47:59;98852.00;;;14.80
19282;BMP180;9774;52.034;5.342;2024-02-23T13:50:28;98864.00;;;14.80
19282;BMP180;9774;52.034;5.342;2024-02-23T13:52:55;98850.00;;;14.90
19282;BMP180;9774;52.034;5.342;2024-02-23T13:55:22;98861.00;;;14.90
19282;BMP180;9774;52.034;5.342;2024-02-23T13:57:50;98863.00;;;14.90
19282;BMP180;9774;52.034;5.342;2024-02-23T14:00:18;98864.00;;;14.90
19282;BMP180;9774;52.034;5.342;2024-02-23T14:02:46;98866.00;;;14.90
19282;BMP180;9774;52.034;5.342;2024-02-23T14:05:13;98874.00;;;14.90
19282;BMP180;9774;52.034;5.342;2024-02-23T14:07:42;98873.00;;;15.00
19282;BMP180;9774;52.034;5.342;2024-02-23T14:10:10;98870.00;;;15.00
19282;BMP180;9774;52.034;5.342;2024-02-23T14:12:37;98876.00;;;15.10
19282;BMP180;9774;52.034;5.342;2024-02-23T14:15:05;98875.00;;;15.40
19282;BMP180;9774;52.034;5.342;2024-02-23T14:17:36;98881.00;;;15.60
19282;BMP180;9774;52.034;5.342;2024-02-23T14:20:05;98875.00;;;15.80
19282;BMP180;9774;52.034;5.342;2024-02-23T14:22:32;98870.00;;;15.90
19282;BMP180;9774;52.034;5.342;2024-02-23T14:25:01;98885.00;;;16.00